KTRI/TRI METAR and TAF weather

Enter ICAO airport designator
Station Type Date Time Source
KTRI METAR 2018/12/10 09:08 UTC NOAA

KTRI 100908Z 00000KT 2 1/2SM -SN BR FEW015 OVC036 01/01 A3005 RMK AO2 P0000 T00060006 $


Station Type Date Time Source
KTRI Decoded METAR 2018/12/10 09:08 UTC NOAA

TRI-CITY REGIONAL AIRPORT, TN, United States (KTRI) 36-28N 082-24W 474M
Dec 10, 2018 - 04:08 AM EST / 2018.12.10 0908 UTC
Wind: Calm:0
Visibility: 2 1/2 mile(s):0
Sky conditions: overcast
Weather: light snow; mist
Precipitation last hour: A trace
Temperature: 33.1 F (0.6 C)
Dew Point: 33.1 F (0.6 C)
Relative Humidity: 100%
Pressure (altimeter): 30.05 in. Hg (1017 hPa)
ob: KTRI 100908Z 00000KT 2 1/2SM -SN BR FEW015 OVC036 01/01 A3005 RMK AO2 P0000 T00060006
cycle: 9

Station Type Date Time Source
KTRI TAF 2018/12/10 09:16 UTC NOAA

TAF
AMD KTRI 100914Z 1009/1106 35003KT 2SM -SN BR OVC015
FM101300 35003KT P6SM BKN025
FM101800 33004KT P6SM SCT100 BKN250


Example: see airport list